Time;durP1;ratioP1;P1;durP2;ratioP2;P2;SDS_P1;SDS_P2;PMS_P1;PMS_P2;Temp;Humidity;BMP_temperature;BMP_pressure;BME280_temperature;BME280_humidity;BME280_pressure;Samples;Min_cycle;Max_cycle;Signal;HPM_P1;HPM_P2
2022/03/23 00:01:42;;;;;;;25.50;17.00;;;5.00;99.90;;;;;;5030444;28;20198;-85
2022/03/23 00:04:08;;;;;;;24.83;16.53;;;5.10;99.90;;;;;;5030575;28;20179;-85
2022/03/23 00:06:35;;;;;;;26.87;16.50;;;5.10;99.90;;;;;;5015109;28;20202;-85
2022/03/23 00:09:01;;;;;;;23.70;16.67;;;5.20;99.90;;;;;;5014940;28;20206;-85
2022/03/23 00:11:28;;;;;;;28.63;17.47;;;5.30;99.90;;;;;;5014862;28;20206;-85
2022/03/23 00:13:54;;;;;;;25.03;17.57;;;5.20;99.90;;;;;;5014654;28;20186;-85
2022/03/23 00:16:20;;;;;;;27.80;16.73;;;5.30;99.90;;;;;;5014187;28;20235;-85
2022/03/23 00:18:46;;;;;;;25.23;16.83;;;5.30;99.90;;;;;;5029836;28;20170;-85
2022/03/23 00:21:13;;;;;;;29.10;17.50;;;5.20;99.90;;;;;;5030762;28;20233;-85
2022/03/23 00:23:39;;;;;;;24.13;16.77;;;5.10;99.90;;;;;;5013815;28;20217;-85
2022/03/23 00:26:06;;;;;;;24.90;17.67;;;4.90;99.90;;;;;;5014191;28;20206;-85
2022/03/23 00:28:32;;;;;;;27.57;17.50;;;4.90;99.90;;;;;;5013703;28;20187;-85
2022/03/23 00:30:59;;;;;;;26.37;18.13;;;4.80;99.90;;;;;;5013853;28;20175;-85
2022/03/23 00:33:25;;;;;;;28.90;18.47;;;4.70;99.90;;;;;;5013990;28;20205;-84
2022/03/23 00:35:51;;;;;;;29.80;17.87;;;4.60;99.90;;;;;;5013933;28;20677;-85
2022/03/23 00:38:18;;;;;;;26.97;18.57;;;4.50;99.90;;;;;;5013809;28;20233;-85
2022/03/23 00:40:45;;;;;;;27.57;18.47;;;4.60;99.90;;;;;;5013347;28;20193;-85
2022/03/23 00:43:12;;;;;;;30.60;18.10;;;4.60;99.90;;;;;;5013881;28;20190;-85
2022/03/23 00:45:40;;;;;;;31.40;18.87;;;4.40;99.90;;;;;;5026971;28;20221;-85
2022/03/23 00:48:06;;;;;;;26.33;18.60;;;4.20;99.90;;;;;;5016038;28;20245;-85
2022/03/23 00:50:34;;;;;;;30.40;18.37;;;4.20;99.90;;;;;;5013064;28;20182;-85
2022/03/23 00:53:00;;;;;;;28.43;18.50;;;4.10;99.90;;;;;;5013293;28;20205;-85
2022/03/23 00:55:26;;;;;;;28.10;18.63;;;4.10;99.90;;;;;;5012903;28;20179;-85
2022/03/23 00:57:52;;;;;;;27.17;17.27;;;4.20;99.90;;;;;;5012926;28;20182;-85
2022/03/23 01:00:20;;;;;;;27.73;18.97;;;4.10;99.90;;;;;;5012611;28;20190;-85
2022/03/23 01:02:47;;;;;;;31.13;18.60;;;4.10;99.90;;;;;;5012692;28;20422;-85
2022/03/23 01:05:15;;;;;;;25.33;17.80;;;4.10;99.90;;;;;;5029272;28;20202;-85
2022/03/23 01:07:42;;;;;;;28.73;18.53;;;4.00;99.90;;;;;;5029327;28;20199;-85
2022/03/23 01:10:14;;;;;;;29.10;18.40;;;4.00;99.90;;;;;;5012302;28;20229;-85
2022/03/23 01:12:44;;;;;;;26.90;17.47;;;4.00;99.90;;;;;;5012713;28;20202;-85
2022/03/23 01:15:12;;;;;;;26.40;18.10;;;4.00;99.90;;;;;;5012794;28;20178;-85
2022/03/23 01:17:38;;;;;;;27.03;17.87;;;4.00;99.90;;;;;;5012627;28;20182;-85
2022/03/23 01:20:08;;;;;;;27.60;18.20;;;4.00;99.90;;;;;;5028933;28;20183;-85
2022/03/23 01:22:35;;;;;;;25.63;16.73;;;4.00;99.90;;;;;;5012485;28;20285;-85
2022/03/23 01:25:03;;;;;;;26.03;17.03;;;3.90;99.90;;;;;;5028609;28;20263;-85
2022/03/23 01:27:29;;;;;;;24.93;16.73;;;3.90;99.90;;;;;;5028918;28;20179;-85
2022/03/23 01:29:55;;;;;;;28.73;17.13;;;3.70;99.90;;;;;;5013661;28;20186;-85
2022/03/23 01:32:21;;;;;;;26.57;16.97;;;3.50;99.90;;;;;;5016191;28;20194;-85
2022/03/23 01:34:47;;;;;;;26.10;16.10;;;3.40;99.90;;;;;;5016239;28;20635;-85
2022/03/23 01:37:13;;;;;;;26.83;16.33;;;3.20;99.90;;;;;;5016022;28;20189;-85
2022/03/23 01:39:40;;;;;;;26.93;17.13;;;3.10;99.90;;;;;;5015822;28;20182;-85
2022/03/23 01:42:06;;;;;;;25.27;16.90;;;3.10;99.90;;;;;;5032388;28;20209;-85
2022/03/23 01:44:32;;;;;;;27.17;17.23;;;3.00;99.90;;;;;;5032311;28;20207;-85
2022/03/23 01:47:08;;;;;;;28.27;17.43;;;3.00;99.90;;;;;;5015957;28;20193;-85
2022/03/23 01:49:46;;;;;;;28.47;19.00;;;3.00;99.90;;;;;;5015471;28;20195;-85
2022/03/23 01:52:14;;;;;;;25.27;16.90;;;3.00;99.90;;;;;;5015705;28;20216;-85
2022/03/23 01:54:41;;;;;;;27.37;16.97;;;3.10;99.90;;;;;;5015771;28;20175;-85
2022/03/23 01:57:08;;;;;;;26.03;16.77;;;3.00;99.90;;;;;;5015709;28;20224;-85
2022/03/23 01:59:35;;;;;;;25.77;17.00;;;3.00;99.90;;;;;;5032396;28;20263;-85
2022/03/23 02:02:03;;;;;;;28.73;17.13;;;3.00;99.90;;;;;;5015914;28;20209;-85
2022/03/23 02:04:32;;;;;;;26.17;15.67;;;3.00;99.90;;;;;;5016000;28;20205;-85
2022/03/23 02:06:58;;;;;;;24.40;16.47;;;2.90;99.90;;;;;;5015283;28;20304;-85
2022/03/23 02:09:28;;;;;;;24.83;16.27;;;2.80;99.90;;;;;;5015776;28;20224;-85
2022/03/23 02:11:56;;;;;;;27.43;17.00;;;2.80;99.90;;;;;;5031940;28;20288;-85
2022/03/23 02:14:22;;;;;;;24.57;15.73;;;2.70;99.90;;;;;;5015177;28;20273;-85
2022/03/23 02:16:51;;;;;;;30.30;17.53;;;2.70;99.90;;;;;;5015248;28;20620;-85
2022/03/23 02:19:18;;;;;;;26.07;17.33;;;2.60;99.90;;;;;;5015010;28;20608;-85
2022/03/23 02:21:45;;;;;;;25.70;16.97;;;2.50;99.90;;;;;;5014733;28;20210;-85
2022/03/23 02:24:11;;;;;;;26.83;16.20;;;2.40;99.90;;;;;;5015164;28;20293;-85
2022/03/23 02:26:37;;;;;;;26.23;16.77;;;2.30;99.90;;;;;;4998847;28;20211;-85
2022/03/23 02:29:07;;;;;;;25.27;16.73;;;2.10;99.90;;;;;;5014694;28;20197;-85
2022/03/23 02:31:34;;;;;;;28.10;17.47;;;2.00;99.90;;;;;;5015006;28;20274;-85
2022/03/23 02:34:00;;;;;;;30.10;17.33;;;2.00;99.90;;;;;;5015141;28;20248;-85
2022/03/23 02:36:26;;;;;;;30.73;18.10;;;2.00;99.90;;;;;;5031460;28;20184;-85
2022/03/23 02:38:52;;;;;;;25.27;17.17;;;2.10;99.90;;;;;;5015108;28;20190;-85
2022/03/23 02:41:19;;;;;;;25.20;16.83;;;2.30;99.90;;;;;;5014778;28;20290;-85
2022/03/23 02:43:46;;;;;;;25.80;16.23;;;2.50;99.90;;;;;;5014685;28;20547;-85
2022/03/23 02:46:17;;;;;;;25.87;16.17;;;2.70;99.90;;;;;;5014776;28;20224;-85
2022/03/23 02:48:43;;;;;;;26.67;16.37;;;2.70;99.90;;;;;;5031168;28;20186;-85
2022/03/23 02:51:09;;;;;;;27.30;17.53;;;2.70;99.90;;;;;;5014765;28;20198;-84
2022/03/23 03:02:39;;;;;;;24.27;16.00;;;2.50;99.90;;;;;;5030687;28;20245;-85
2022/03/23 03:05:07;;;;;;;24.70;16.30;;;2.50;99.90;;;;;;5014613;28;20228;-85
2022/03/23 03:10:22;;;;;;;26.73;16.17;;;2.20;99.90;;;;;;5032706;28;20201;-85
2022/03/23 03:12:50;;;;;;;26.33;17.73;;;2.20;99.90;;;;;;5016021;28;20209;-85
2022/03/23 03:15:18;;;;;;;30.20;17.80;;;2.20;99.90;;;;;;5014826;28;20250;-85
2022/03/23 03:17:46;;;;;;;28.90;17.93;;;2.20;99.90;;;;;;5030650;28;20247;-85
2022/03/23 03:20:14;;;;;;;24.47;15.80;;;2.00;99.90;;;;;;5030820;28;20197;-85
2022/03/23 03:22:40;;;;;;;28.00;16.60;;;1.90;99.90;;;;;;5030812;28;20209;-85
2022/03/23 03:25:11;;;;;;;24.07;16.20;;;1.70;99.90;;;;;;5014462;28;20203;-85
2022/03/23 03:27:38;;;;;;;27.00;17.03;;;1.60;99.90;;;;;;5013777;28;20679;-85
2022/03/23 03:30:05;;;;;;;24.13;15.70;;;1.70;99.90;;;;;;5014615;28;20283;-85
2022/03/23 03:32:33;;;;;;;24.67;16.73;;;1.70;99.90;;;;;;5014954;28;20238;-86
2022/03/23 03:34:59;;;;;;;24.10;16.17;;;1.70;99.90;;;;;;5015380;28;20185;-85
2022/03/23 03:37:25;;;;;;;26.97;16.53;;;1.80;99.90;;;;;;5014919;28;20194;-85
2022/03/23 03:39:51;;;;;;;28.33;16.83;;;1.90;99.90;;;;;;5014990;28;20190;-85
2022/03/23 03:42:18;;;;;;;28.00;16.47;;;1.90;99.90;;;;;;5030251;28;20212;-85
2022/03/23 03:44:45;;;;;;;24.40;16.33;;;2.00;99.90;;;;;;5030537;28;20209;-85
2022/03/23 03:47:11;;;;;;;27.03;17.70;;;2.00;99.90;;;;;;5013796;28;20185;-85
2022/03/23 03:49:38;;;;;;;25.67;16.57;;;1.90;99.90;;;;;;5029521;28;20196;-85
2022/03/23 03:52:05;;;;;;;27.40;16.10;;;2.00;99.90;;;;;;5029841;28;20201;-85
2022/03/23 03:54:31;;;;;;;25.23;16.20;;;2.00;99.90;;;;;;5013593;28;20186;-85
2022/03/23 03:56:57;;;;;;;26.60;16.17;;;2.00;99.90;;;;;;5013802;28;20177;-85
2022/03/23 03:59:23;;;;;;;24.57;15.53;;;2.00;99.90;;;;;;5013373;28;20187;-85
2022/03/23 04:01:50;;;;;;;29.77;17.63;;;2.10;99.90;;;;;;5013552;28;20209;-85
2022/03/23 04:04:16;;;;;;;25.17;16.07;;;2.00;99.90;;;;;;5029966;28;20213;-85
2022/03/23 04:06:42;;;;;;;23.37;15.57;;;2.00;99.90;;;;;;5013545;28;20207;-85
2022/03/23 04:09:08;;;;;;;27.77;16.67;;;2.00;99.90;;;;;;5013143;28;20555;-85
2022/03/23 04:11:35;;;;;;;24.57;16.57;;;2.00;99.90;;;;;;5013318;28;20199;-85
2022/03/23 04:14:02;;;;;;;25.17;15.43;;;2.00;99.90;;;;;;5012801;28;20270;-85
2022/03/23 04:16:29;;;;;;;24.77;16.13;;;1.90;99.90;;;;;;5029317;28;20189;-85
2022/03/23 04:18:55;;;;;;;27.00;15.50;;;1.90;99.90;;;;;;5013234;28;20243;-85
2022/03/23 04:21:21;;;;;;;24.47;15.87;;;1.90;99.90;;;;;;5013332;28;20202;-85
2022/03/23 04:23:47;;;;;;;24.93;15.83;;;1.90;99.90;;;;;;5013336;28;20275;-85
2022/03/23 04:26:13;;;;;;;24.47;16.23;;;1.90;99.90;;;;;;5013107;28;20299;-85
2022/03/23 04:28:39;;;;;;;26.97;15.80;;;1.90;99.90;;;;;;5013142;28;20192;-85
2022/03/23 04:31:07;;;;;;;24.60;15.63;;;1.80;99.90;;;;;;5012979;28;20211;-85
2022/03/23 04:33:33;;;;;;;24.60;16.53;;;1.80;99.90;;;;;;5029453;28;20208;-85
2022/03/23 04:35:59;;;;;;;26.83;16.00;;;1.70;99.90;;;;;;5013065;28;20214;-85
2022/03/23 04:38:26;;;;;;;24.17;16.00;;;1.60;99.90;;;;;;5012975;28;20191;-85
2022/03/23 04:40:52;;;;;;;22.43;15.43;;;1.60;99.90;;;;;;5012880;28;20185;-85
2022/03/23 04:43:19;;;;;;;28.37;17.70;;;1.60;99.90;;;;;;5013040;28;20189;-85
2022/03/23 04:45:45;;;;;;;28.73;17.37;;;1.60;99.90;;;;;;5013080;28;20249;-85
2022/03/23 04:48:10;;;;;;;31.43;18.87;;;1.50;99.90;;;;;;5029615;28;20183;-85
2022/03/23 04:50:37;;;;;;;27.07;16.43;;;1.50;99.90;;;;;;5013059;28;20183;-85
2022/03/23 04:53:03;;;;;;;25.93;17.13;;;1.40;99.90;;;;;;5012717;28;20207;-85
2022/03/23 04:55:29;;;;;;;25.10;16.07;;;1.50;99.90;;;;;;5012711;28;20192;-85
2022/03/23 04:57:55;;;;;;;30.00;16.83;;;1.50;99.90;;;;;;5029200;28;20187;-85
2022/03/23 05:00:22;;;;;;;28.07;17.20;;;1.50;99.90;;;;;;5010342;28;20243;-85
2022/03/23 05:02:49;;;;;;;27.10;16.13;;;1.60;99.90;;;;;;4993212;28;20205;-85
2022/03/23 05:05:17;;;;;;;26.10;16.20;;;1.60;99.90;;;;;;4996706;28;20215;-85
2022/03/23 05:07:45;;;;;;;24.43;16.53;;;1.60;99.90;;;;;;4997090;28;20181;-85
2022/03/23 05:10:13;;;;;;;27.07;16.93;;;1.60;99.90;;;;;;5013025;28;20181;-85
2022/03/23 05:12:41;;;;;;;25.07;15.27;;;1.50;99.90;;;;;;5013429;28;20207;-85
2022/03/23 05:15:08;;;;;;;26.20;16.30;;;1.40;99.90;;;;;;4997034;28;20225;-85
2022/03/23 05:17:36;;;;;;;24.70;15.67;;;1.40;99.90;;;;;;5013387;28;20231;-85
2022/03/23 05:20:03;;;;;;;24.73;15.43;;;1.30;99.90;;;;;;4996903;28;20186;-85
2022/03/23 05:22:29;;;;;;;26.67;15.80;;;1.30;99.90;;;;;;5013154;28;20203;-85
2022/03/23 05:24:54;;;;;;;25.80;15.80;;;1.30;99.90;;;;;;4996824;28;20207;-85
2022/03/23 05:27:20;;;;;;;22.40;14.53;;;1.20;99.90;;;;;;4996952;28;20192;-85
2022/03/23 05:29:46;;;;;;;24.63;14.90;;;1.20;99.90;;;;;;5010409;28;20190;-85
2022/03/23 05:32:16;;;;;;;22.70;15.10;;;1.10;99.90;;;;;;5016450;28;20199;-85
2022/03/23 05:34:52;;;;;;;23.93;15.57;;;1.10;99.90;;;;;;5016542;28;20290;-85
2022/03/23 05:37:18;;;;;;;26.33;16.23;;;1.20;99.90;;;;;;5016247;28;20198;-85
2022/03/23 05:39:45;;;;;;;27.73;15.80;;;1.10;99.90;;;;;;5015528;28;20178;-85
2022/03/23 05:42:13;;;;;;;25.07;15.40;;;1.10;99.90;;;;;;5015891;28;20283;-85
2022/03/23 05:44:45;;;;;;;27.43;16.30;;;1.10;99.90;;;;;;5029829;28;20186;-85
2022/03/23 05:47:11;;;;;;;29.57;16.30;;;1.20;99.90;;;;;;5015385;28;20182;-85
2022/03/23 05:49:37;;;;;;;25.40;16.60;;;1.20;99.90;;;;;;5015337;28;20201;-85
2022/03/23 05:52:03;;;;;;;28.97;15.97;;;1.30;99.90;;;;;;5015605;28;20200;-85
2022/03/23 05:54:29;;;;;;;24.40;15.73;;;1.30;99.90;;;;;;5017505;28;20187;-85
2022/03/23 05:56:55;;;;;;;24.47;15.70;;;1.40;99.90;;;;;;5018191;28;20633;-85
2022/03/23 05:59:21;;;;;;;26.50;15.23;;;1.40;99.90;;;;;;5017813;28;20191;-85
2022/03/23 06:01:47;;;;;;;24.10;15.27;;;1.50;99.90;;;;;;5019433;28;20245;-85
2022/03/23 06:04:13;;;;;;;25.77;16.03;;;1.60;99.90;;;;;;5055924;28;20203;-85
2022/03/23 06:06:40;;;;;;;28.23;18.30;;;1.70;99.90;;;;;;5035699;28;20204;-85
2022/03/23 06:09:06;;;;;;;25.10;15.10;;;1.80;99.90;;;;;;5032887;28;20180;-85
2022/03/23 06:11:32;;;;;;;27.97;17.30;;;1.80;99.90;;;;;;5016369;28;20238;-85
2022/03/23 06:13:58;;;;;;;24.40;16.33;;;1.80;99.90;;;;;;5015722;28;20237;-85
2022/03/23 06:16:24;;;;;;;25.30;16.67;;;1.90;99.90;;;;;;5014778;28;20188;-85
2022/03/23 06:18:50;;;;;;;27.60;16.47;;;2.00;99.90;;;;;;5015727;28;20184;-85
2022/03/23 06:21:16;;;;;;;27.87;16.07;;;2.00;99.90;;;;;;5012151;28;20205;-85
2022/03/23 06:23:42;;;;;;;26.50;16.37;;;2.10;99.90;;;;;;5004779;28;20179;-85
2022/03/23 06:26:08;;;;;;;23.50;15.73;;;2.10;99.90;;;;;;5012266;28;20250;-85
2022/03/23 06:28:34;;;;;;;24.13;15.80;;;2.20;99.90;;;;;;5011244;28;20666;-85
2022/03/23 06:31:06;;;;;;;30.47;16.20;;;2.30;99.90;;;;;;4995576;28;20568;-85
2022/03/23 06:34:04;;;;;;;25.77;16.27;;;2.30;99.90;;;;;;4997792;28;20208;-85
2022/03/23 06:36:30;;;;;;;27.10;16.93;;;2.40;99.90;;;;;;5014575;28;20173;-85
2022/03/23 06:38:57;;;;;;;25.33;16.13;;;2.40;99.90;;;;;;4998002;28;20184;-85
2022/03/23 06:41:22;;;;;;;25.53;16.70;;;2.50;99.90;;;;;;5027176;28;20203;-85
2022/03/23 06:43:48;;;;;;;28.17;17.97;;;2.60;99.90;;;;;;5014943;28;20184;-85
2022/03/23 06:46:17;;;;;;;24.03;16.13;;;2.70;99.90;;;;;;5031304;28;20210;-85
2022/03/23 06:48:43;;;;;;;24.27;17.43;;;2.70;99.90;;;;;;5016914;28;20193;-85
2022/03/23 06:51:09;;;;;;;29.87;16.73;;;2.80;99.90;;;;;;5001814;28;20235;-84
2022/03/23 06:53:35;;;;;;;24.30;16.73;;;2.90;99.90;;;;;;4998523;28;20178;-84
2022/03/23 06:56:01;;;;;;;27.07;16.97;;;3.00;99.90;;;;;;4998102;28;20237;-84
2022/03/23 06:58:27;;;;;;;29.13;20.07;;;3.10;99.90;;;;;;5000356;28;20190;-84
2022/03/23 07:00:54;;;;;;;31.80;20.33;;;3.10;99.90;;;;;;5016923;28;20200;-84
2022/03/23 07:03:20;;;;;;;26.90;17.53;;;3.30;99.90;;;;;;5017042;28;20256;-84
2022/03/23 07:05:46;;;;;;;29.23;17.03;;;3.50;99.90;;;;;;5033002;28;20201;-80
2022/03/23 07:11:06;;;;;;;24.93;15.37;;;3.70;99.90;;;;;;5033562;28;20247;-84
2022/03/23 07:13:32;;;;;;;25.73;16.40;;;3.80;99.90;;;;;;5017579;28;20277;-84
2022/03/23 07:15:58;;;;;;;24.53;16.00;;;4.00;99.90;;;;;;5018406;28;20228;-84
2022/03/23 07:18:24;;;;;;;24.17;15.60;;;4.10;99.90;;;;;;5033269;28;20206;-84
2022/03/23 07:20:51;;;;;;;24.63;15.80;;;4.20;99.90;;;;;;5015563;28;20190;-84
2022/03/23 07:23:16;;;;;;;24.80;16.37;;;4.40;99.90;;;;;;5016544;28;20190;-84
2022/03/23 07:25:42;;;;;;;25.60;17.20;;;4.50;99.90;;;;;;5012262;28;20210;-69
2022/03/23 07:28:09;;;;;;;26.47;17.30;;;4.60;99.90;;;;;;5015244;28;20273;-73
2022/03/23 07:30:35;;;;;;;24.27;16.40;;;4.70;99.90;;;;;;5029426;28;20228;-69
2022/03/23 07:33:02;;;;;;;27.73;16.80;;;4.80;99.90;;;;;;5015718;28;20230;-70
2022/03/23 07:35:28;;;;;;;25.63;16.93;;;4.90;99.90;;;;;;5016325;28;20588;-70
2022/03/23 07:37:54;;;;;;;25.07;16.60;;;5.00;99.90;;;;;;5013325;28;20183;-78
2022/03/23 07:40:20;;;;;;;23.93;16.27;;;5.20;99.90;;;;;;4995803;28;20187;-76
2022/03/23 07:42:45;;;;;;;24.97;15.70;;;5.30;99.90;;;;;;4998705;28;20203;-85
2022/03/23 07:45:22;;;;;;;26.73;16.23;;;5.40;99.90;;;;;;5004113;28;20257;-84
2022/03/23 07:47:48;;;;;;;26.20;15.80;;;5.50;99.90;;;;;;5013747;28;20222;-85
2022/03/23 07:50:14;;;;;;;22.87;15.37;;;5.60;99.90;;;;;;5003600;28;20203;-85
2022/03/23 07:52:40;;;;;;;24.53;16.10;;;5.80;99.90;;;;;;5002094;28;20230;-85
2022/03/23 07:55:06;;;;;;;22.03;15.90;;;5.90;99.90;;;;;;5012257;28;20203;-84
2022/03/23 07:57:32;;;;;;;22.03;15.93;;;6.00;99.90;;;;;;4996342;28;20184;-84
2022/03/23 07:59:58;;;;;;;22.87;16.10;;;6.20;99.90;;;;;;5011764;28;20191;-84
2022/03/23 08:02:26;;;;;;;21.53;15.73;;;6.30;99.90;;;;;;5009762;28;20190;-84
2022/03/23 08:04:52;;;;;;;24.20;16.67;;;6.40;99.90;;;;;;5030027;28;20215;-84
2022/03/23 08:07:19;;;;;;;26.90;16.17;;;6.60;99.90;;;;;;5015986;28;20194;-84
2022/03/23 08:09:45;;;;;;;29.33;16.73;;;6.70;99.90;;;;;;5015957;28;20205;-85
2022/03/23 08:12:11;;;;;;;21.67;16.40;;;6.90;99.90;;;;;;5015802;28;20311;-84
2022/03/23 08:14:37;;;;;;;22.83;16.67;;;7.10;99.90;;;;;;5015997;28;20180;-84
2022/03/23 08:17:03;;;;;;;26.67;16.43;;;7.30;99.90;;;;;;5015620;28;20224;-84
2022/03/23 08:22:50;;;;;;;23.67;16.63;;;7.60;99.90;;;;;;5031578;28;20192;-85
2022/03/23 08:25:16;;;;;;;26.60;17.70;;;7.60;99.90;;;;;;5016018;28;20193;-85
2022/03/23 08:27:41;;;;;;;24.27;16.83;;;7.70;99.90;;;;;;5015510;28;20177;-85
2022/03/23 08:30:08;;;;;;;19.43;15.97;;;7.90;99.90;;;;;;5015039;28;20229;-85
2022/03/23 08:32:34;;;;;;;26.13;16.83;;;8.20;99.90;;;;;;5015627;28;20274;-81
2022/03/23 08:35:00;;;;;;;22.57;17.07;;;8.50;99.90;;;;;;5015827;28;20263;-81
2022/03/23 08:37:26;;;;;;;24.67;17.53;;;8.70;99.90;;;;;;5016043;28;20221;-83
2022/03/23 08:39:52;;;;;;;22.57;15.97;;;8.90;99.90;;;;;;5037219;28;20197;-84
2022/03/23 08:42:18;;;;;;;23.77;15.80;;;9.20;99.90;;;;;;5022040;28;20307;-83
2022/03/23 08:44:45;;;;;;;24.07;16.53;;;9.40;99.90;;;;;;5040109;28;20178;-82
2022/03/23 08:47:12;;;;;;;22.23;15.53;;;9.50;99.90;;;;;;5035018;28;20208;-86
2022/03/23 08:49:38;;;;;;;23.13;15.37;;;9.70;99.90;;;;;;5040996;28;20213;-85
2022/03/23 08:52:04;;;;;;;23.07;16.73;;;9.80;99.90;;;;;;5022095;28;20230;-85
2022/03/23 08:54:31;;;;;;;21.77;16.00;;;10.00;99.90;;;;;;5021782;28;20179;-85
2022/03/23 08:56:57;;;;;;;22.70;16.60;;;10.10;99.90;;;;;;5022113;28;20188;-85
2022/03/23 08:59:23;;;;;;;22.10;16.43;;;10.20;99.90;;;;;;5011173;28;20187;-84
2022/03/23 09:01:50;;;;;;;21.93;15.77;;;10.20;99.90;;;;;;5028866;28;20206;-85
2022/03/23 09:04:16;;;;;;;25.30;16.37;;;10.40;99.90;;;;;;5033622;28;20213;-85
2022/03/23 09:06:42;;;;;;;22.80;16.47;;;10.60;99.90;;;;;;5015470;28;20332;-85
2022/03/23 09:09:08;;;;;;;23.30;16.20;;;10.50;99.90;;;;;;5020937;28;20199;-85
2022/03/23 09:11:34;;;;;;;24.93;17.33;;;10.60;99.90;;;;;;5017080;28;20284;-85
2022/03/23 09:14:00;;;;;;;21.37;16.93;;;10.70;99.90;;;;;;5002687;28;20194;-79
2022/03/23 09:16:27;;;;;;;21.83;15.97;;;10.90;99.90;;;;;;5003986;28;20189;-85
2022/03/23 09:18:53;;;;;;;23.03;16.93;;;11.10;99.90;;;;;;5018151;28;20175;-85
2022/03/23 09:21:21;;;;;;;24.37;16.90;;;11.10;99.90;;;;;;5001185;28;20198;-85
2022/03/23 09:23:48;;;;;;;20.03;16.20;;;11.20;99.90;;;;;;5015373;28;20194;-85
2022/03/23 09:26:14;;;;;;;24.83;17.00;;;11.50;99.90;;;;;;4999091;28;20211;-85
2022/03/23 09:28:40;;;;;;;21.27;16.47;;;11.50;99.90;;;;;;5003380;28;20205;-85
2022/03/23 09:31:06;;;;;;;22.87;16.43;;;11.70;99.90;;;;;;5035016;28;20254;-85
2022/03/23 09:33:33;;;;;;;22.80;16.37;;;11.80;99.90;;;;;;5019036;28;20179;-85
2022/03/23 09:35:59;;;;;;;22.93;17.17;;;11.90;99.90;;;;;;5019279;28;20185;-85
2022/03/23 09:38:26;;;;;;;22.60;16.17;;;12.00;99.90;;;;;;5035428;28;20193;-85
2022/03/23 09:40:53;;;;;;;22.70;16.93;;;12.20;99.90;;;;;;5018931;28;20214;-85
2022/03/23 09:43:24;;;;;;;22.30;18.00;;;12.40;99.90;;;;;;5035462;28;20186;-85
2022/03/23 09:45:51;;;;;;;23.67;16.87;;;12.50;99.90;;;;;;5035588;28;20294;-85
2022/03/23 09:48:21;;;;;;;23.63;16.87;;;12.60;99.90;;;;;;5019087;28;20193;-85
2022/03/23 09:50:53;;;;;;;22.43;16.67;;;12.70;99.80;;;;;;5032356;28;20207;-85
2022/03/23 09:53:24;;;;;;;22.20;17.03;;;12.80;99.20;;;;;;5032421;28;20185;-85
2022/03/23 09:55:51;;;;;;;24.93;17.57;;;13.00;99.20;;;;;;5016112;28;20199;-85
2022/03/23 09:58:18;;;;;;;21.63;16.50;;;13.20;97.90;;;;;;5032314;28;20273;-85
2022/03/23 10:00:44;;;;;;;21.13;16.30;;;13.20;98.10;;;;;;5015887;28;20191;-86
2022/03/23 10:03:13;;;;;;;22.33;17.93;;;13.30;97.50;;;;;;5015767;28;20218;-85
2022/03/23 10:06:15;;;;;;;25.13;17.07;;;13.40;98.30;;;;;;5015997;28;20274;-85
2022/03/23 10:09:00;;;;;;;22.17;17.30;;;13.50;97.60;;;;;;5032175;28;20185;-85
2022/03/23 10:12:03;;;;;;;21.10;16.47;;;13.60;97.10;;;;;;5034158;28;20191;-86
2022/03/23 10:14:45;;;;;;;19.87;15.87;;;13.70;96.90;;;;;;5015847;28;20185;-87
2022/03/23 10:17:48;;;;;;;23.10;16.20;;;13.90;97.20;;;;;;5015899;28;20174;-87
2022/03/23 10:20:15;;;;;;;23.53;17.30;;;14.00;96.10;;;;;;5016068;28;20181;-87
2022/03/23 10:22:49;;;;;;;21.50;16.50;;;14.00;95.50;;;;;;5015625;28;20264;-87
2022/03/23 10:25:16;;;;;;;21.53;15.30;;;14.10;95.40;;;;;;5016494;28;20263;-87
2022/03/23 10:27:43;;;;;;;21.33;15.67;;;14.20;95.80;;;;;;5016925;28;20182;-87
2022/03/23 10:30:09;;;;;;;23.33;16.00;;;14.40;95.50;;;;;;5016215;28;20653;-86
2022/03/23 10:32:37;;;;;;;19.47;14.87;;;14.60;94.90;;;;;;5016718;28;20282;-87
2022/03/23 10:35:06;;;;;;;19.13;14.93;;;14.80;94.90;;;;;;5024811;28;20182;-87
2022/03/23 10:37:33;;;;;;;17.63;15.33;;;15.00;93.30;;;;;;5031801;28;20178;-87
2022/03/23 10:40:07;;;;;;;18.30;14.90;;;15.30;94.20;;;;;;5019859;28;20179;-87
2022/03/23 10:42:35;;;;;;;19.90;15.37;;;15.40;93.00;;;;;;5016054;28;20202;-87
2022/03/23 10:45:09;;;;;;;21.10;15.10;;;15.30;92.30;;;;;;5031613;28;20236;-87
2022/03/23 10:47:38;;;;;;;20.37;14.60;;;15.40;92.20;;;;;;5031659;28;20191;-87
2022/03/23 10:50:08;;;;;;;20.67;14.50;;;15.60;91.50;;;;;;5014937;28;20278;-87
2022/03/23 10:52:35;;;;;;;17.60;13.90;;;15.80;91.60;;;;;;5014948;28;20202;-87
2022/03/23 10:55:05;;;;;;;17.47;13.33;;;16.00;90.90;;;;;;5031404;28;20564;-87
2022/03/23 10:57:50;;;;;;;13.80;12.17;;;16.20;88.80;;;;;;5031255;28;20214;-87
2022/03/23 11:00:17;;;;;;;14.13;12.10;;;16.40;87.40;;;;;;5014525;28;20226;-87
2022/03/23 11:02:47;;;;;;;16.77;12.13;;;16.60;85.20;;;;;;5014183;28;20236;-87
2022/03/23 11:05:32;;;;;;;14.73;11.57;;;16.80;84.30;;;;;;5031246;28;20233;-87
2022/03/23 11:08:08;;;;;;;14.50;11.60;;;16.80;79.60;;;;;;5014469;28;20178;-87
2022/03/23 11:16:10;;;;;;;14.30;11.65;;;16.90;82.10;;;;;;5031113;28;20186;-87
2022/03/23 11:18:37;;;;;;;14.80;12.23;;;17.00;80.60;;;;;;5030949;28;20183;-87
2022/03/23 11:21:03;;;;;;;12.65;11.23;;;17.20;81.90;;;;;;5014186;28;20188;-87
2022/03/23 11:23:35;;;;;;;13.85;11.70;;;17.30;82.40;;;;;;5013709;28;20182;-87
2022/03/23 11:26:02;;;;;;;12.27;10.90;;;17.50;81.20;;;;;;5014113;28;20230;-87
2022/03/23 11:28:31;;;;;;;14.38;10.50;;;17.70;79.20;;;;;;5014213;28;20197;-87
2022/03/23 11:30:58;;;;;;;14.00;11.32;;;17.80;79.40;;;;;;5013971;28;20653;-88
2022/03/23 11:33:26;;;;;;;11.43;9.88;;;18.00;77.60;;;;;;5014136;28;20201;-87
2022/03/23 11:35:53;;;;;;;11.65;10.52;;;18.20;80.20;;;;;;5014027;28;20541;-87
2022/03/23 11:38:21;;;;;;;12.13;10.02;;;18.30;76.30;;;;;;5014100;28;20190;-87
2022/03/23 11:40:49;;;;;;;12.85;9.75;;;18.40;73.00;;;;;;5013866;28;20183;-87
2022/03/23 11:43:21;;;;;;;11.00;9.90;;;18.40;75.70;;;;;;5013708;28;20178;-87
2022/03/23 11:45:48;;;;;;;11.27;9.63;;;18.60;76.20;;;;;;5030394;28;20206;-87
2022/03/23 11:48:35;;;;;;;12.15;9.63;;;18.80;73.40;;;;;;5013564;28;20195;-87
2022/03/23 11:51:08;;;;;;;10.05;9.05;;;18.90;73.80;;;;;;5030196;28;20194;-87
2022/03/23 11:53:52;;;;;;;10.80;9.32;;;19.10;73.00;;;;;;5013986;28;20189;-87
2022/03/23 11:56:28;;;;;;;12.10;10.02;;;19.20;70.80;;;;;;5013661;28;20189;-87
2022/03/23 11:58:54;;;;;;;11.70;9.73;;;18.90;67.40;;;;;;5013377;28;20266;-87
2022/03/23 12:01:20;;;;;;;10.10;9.15;;;19.00;72.30;;;;;;5030096;28;20214;-87
2022/03/23 12:04:01;;;;;;;11.93;9.68;;;19.00;69.00;;;;;;5030287;28;20178;-87
2022/03/23 12:06:41;;;;;;;12.02;8.82;;;19.20;69.90;;;;;;5029810;28;20217;-87
2022/03/23 12:09:08;;;;;;;11.18;8.23;;;19.50;68.50;;;;;;5030116;28;20189;-83
2022/03/23 12:11:41;;;;;;;12.90;9.65;;;19.70;70.10;;;;;;5029968;28;20313;-87
2022/03/23 12:14:23;;;;;;;9.63;8.52;;;19.80;67.60;;;;;;5012747;28;20179;-87
2022/03/23 12:16:52;;;;;;;9.38;8.30;;;19.80;63.90;;;;;;5007332;28;20183;-88
2022/03/23 12:19:42;;;;;;;11.25;8.38;;;19.90;65.80;;;;;;5021011;28;20813;-88
2022/03/23 12:22:09;;;;;;;10.00;8.77;;;20.20;64.90;;;;;;5020109;28;20195;-87
2022/03/23 12:24:41;;;;;;;10.52;8.80;;;20.00;63.10;;;;;;5021313;28;20271;-87
2022/03/23 12:27:38;;;;;;;9.32;8.25;;;19.60;59.70;;;;;;5002616;28;20179;-87
2022/03/23 12:30:42;;;;;;;9.10;8.05;;;19.70;65.30;;;;;;4991983;28;20270;-87
2022/03/23 12:33:14;;;;;;;9.32;8.25;;;20.10;62.10;;;;;;5022794;28;20216;-87
2022/03/23 12:35:40;;;;;;;9.63;8.63;;;20.20;61.10;;;;;;5018502;28;20267;-86
2022/03/23 12:38:27;;;;;;;9.27;8.00;;;20.20;60.30;;;;;;5014928;28;20178;-86
2022/03/23 12:40:56;;;;;;;11.20;8.77;;;20.40;63.30;;;;;;5015825;28;20179;-86
2022/03/23 12:43:50;;;;;;;10.20;9.20;;;20.60;61.90;;;;;;5013048;28;20175;-86
2022/03/23 12:46:22;;;;;;;10.00;8.18;;;20.10;60.40;;;;;;5000699;28;20229;-86
2022/03/23 12:57:53;;;;;;;9.00;8.05;;;19.70;58.70;;;;;;5011929;28;20275;-86
2022/03/23 13:00:27;;;;;;;10.07;7.70;;;20.00;59.60;;;;;;5000122;28;20214;-87
2022/03/23 13:03:08;;;;;;;10.48;9.35;;;20.50;60.40;;;;;;4998794;28;20198;-86
2022/03/23 13:05:54;;;;;;;9.82;8.82;;;20.50;57.30;;;;;;5017458;28;20209;-86
2022/03/23 13:08:42;;;;;;;9.20;7.78;;;19.90;57.10;;;;;;4995309;28;20179;-86
2022/03/23 13:11:10;;;;;;;9.65;8.20;;;19.80;59.80;;;;;;5012138;28;20232;-86
2022/03/23 13:13:38;;;;;;;9.30;7.72;;;20.30;59.50;;;;;;4997139;28;20200;-86
2022/03/23 13:16:07;;;;;;;10.57;8.15;;;20.70;61.10;;;;;;5027519;28;20190;-86